sensor_id;sensor_type;location;lat;lon;timestamp;temperature;humidity
35962;DHT22;22044;48.298;10.008;2023-05-23T00:01:46;15.30;99.90
35962;DHT22;22044;48.298;10.008;2023-05-23T00:04:34;15.50;99.90
35962;DHT22;22044;48.298;10.008;2023-05-23T00:07:20;15.50;99.90
35962;DHT22;22044;48.298;10.008;2023-05-23T00:10:06;15.60;99.90
35962;DHT22;22044;48.298;10.008;2023-05-23T00:12:51;15.60;99.90
35962;DHT22;22044;48.298;10.008;2023-05-23T00:15:37;15.70;99.90
35962;DHT22;22044;48.298;10.008;2023-05-23T00:18:25;15.80;99.90
35962;DHT22;22044;48.298;10.008;2023-05-23T00:21:12;15.70;99.90
35962;DHT22;22044;48.298;10.008;2023-05-23T00:23:57;15.60;99.90
35962;DHT22;22044;48.298;10.008;2023-05-23T00:26:43;15.40;99.90
35962;DHT22;22044;48.298;10.008;2023-05-23T00:29:29;15.30;99.90
35962;DHT22;22044;48.298;10.008;2023-05-23T00:32:15;15.40;99.90
35962;DHT22;22044;48.298;10.008;2023-05-23T00:35:00;15.40;99.90
35962;DHT22;22044;48.298;10.008;2023-05-23T00:37:47;15.40;99.90
35962;DHT22;22044;48.298;10.008;2023-05-23T00:40:34;15.50;99.90
35962;DHT22;22044;48.298;10.008;2023-05-23T00:43:20;15.40;99.90
35962;DHT22;22044;48.298;10.008;2023-05-23T00:46:06;15.10;99.90
35962;DHT22;22044;48.298;10.008;2023-05-23T00:48:53;15.00;99.90
35962;DHT22;22044;48.298;10.008;2023-05-23T00:51:39;14.80;99.90
35962;DHT22;22044;48.298;10.008;2023-05-23T00:54:29;14.90;99.90
35962;DHT22;22044;48.298;10.008;2023-05-23T00:57:15;15.10;99.90
35962;DHT22;22044;48.298;10.008;2023-05-23T01:00:02;15.20;99.90
35962;DHT22;22044;48.298;10.008;2023-05-23T01:02:48;15.10;99.90
35962;DHT22;22044;48.298;10.008;2023-05-23T01:05:35;15.10;99.90
35962;DHT22;22044;48.298;10.008;2023-05-23T01:08:20;15.00;99.90
35962;DHT22;22044;48.298;10.008;2023-05-23T01:11:13;15.10;99.90
35962;DHT22;22044;48.298;10.008;2023-05-23T01:14:08;15.20;99.90
35962;DHT22;22044;48.298;10.008;2023-05-23T01:16:57;15.30;99.90
35962;DHT22;22044;48.298;10.008;2023-05-23T01:19:57;15.30;99.90
35962;DHT22;22044;48.298;10.008;2023-05-23T01:22:58;15.40;99.90
35962;DHT22;22044;48.298;10.008;2023-05-23T01:25:52;15.40;99.90
35962;DHT22;22044;48.298;10.008;2023-05-23T01:28:46;15.40;99.90
35962;DHT22;22044;48.298;10.008;2023-05-23T01:31:33;15.40;99.90
35962;DHT22;22044;48.298;10.008;2023-05-23T01:34:21;15.40;99.90
35962;DHT22;22044;48.298;10.008;2023-05-23T01:37:08;15.40;99.90
35962;DHT22;22044;48.298;10.008;2023-05-23T01:39:54;15.40;99.90
35962;DHT22;22044;48.298;10.008;2023-05-23T01:42:40;15.50;99.90
35962;DHT22;22044;48.298;10.008;2023-05-23T01:45:28;15.50;99.90
35962;DHT22;22044;48.298;10.008;2023-05-23T01:48:14;15.50;99.90
35962;DHT22;22044;48.298;10.008;2023-05-23T01:51:01;15.50;99.90
35962;DHT22;22044;48.298;10.008;2023-05-23T01:53:47;15.50;99.90
35962;DHT22;22044;48.298;10.008;2023-05-23T01:56:34;15.40;99.90
35962;DHT22;22044;48.298;10.008;2023-05-23T01:59:20;15.40;99.90
35962;DHT22;22044;48.298;10.008;2023-05-23T02:02:07;15.40;99.90
35962;DHT22;22044;48.298;10.008;2023-05-23T02:04:53;15.40;99.90
35962;DHT22;22044;48.298;10.008;2023-05-23T02:07:41;15.50;99.90
35962;DHT22;22044;48.298;10.008;2023-05-23T02:10:27;15.50;99.90
35962;DHT22;22044;48.298;10.008;2023-05-23T02:13:13;15.40;99.90
35962;DHT22;22044;48.298;10.008;2023-05-23T02:15:58;15.40;99.90
35962;DHT22;22044;48.298;10.008;2023-05-23T02:18:45;15.40;99.90
35962;DHT22;22044;48.298;10.008;2023-05-23T02:21:32;15.40;99.90
35962;DHT22;22044;48.298;10.008;2023-05-23T02:24:17;15.40;99.90
35962;DHT22;22044;48.298;10.008;2023-05-23T02:27:04;15.40;99.90
35962;DHT22;22044;48.298;10.008;2023-05-23T02:29:50;15.30;99.90
35962;DHT22;22044;48.298;10.008;2023-05-23T02:32:36;15.40;99.90
35962;DHT22;22044;48.298;10.008;2023-05-23T02:35:23;15.30;99.90
35962;DHT22;22044;48.298;10.008;2023-05-23T02:38:08;15.30;99.90
35962;DHT22;22044;48.298;10.008;2023-05-23T02:40:54;15.30;99.90
35962;DHT22;22044;48.298;10.008;2023-05-23T02:43:41;15.20;99.90
35962;DHT22;22044;48.298;10.008;2023-05-23T02:46:29;15.30;99.90
35962;DHT22;22044;48.298;10.008;2023-05-23T02:49:14;15.20;99.90
35962;DHT22;22044;48.298;10.008;2023-05-23T02:52:01;15.20;99.90
35962;DHT22;22044;48.298;10.008;2023-05-23T02:54:47;15.20;99.90
35962;DHT22;22044;48.298;10.008;2023-05-23T02:57:32;15.20;99.90
35962;DHT22;22044;48.298;10.008;2023-05-23T03:00:18;15.20;99.90
35962;DHT22;22044;48.298;10.008;2023-05-23T03:03:09;15.30;99.90
35962;DHT22;22044;48.298;10.008;2023-05-23T03:05:54;15.30;99.90
35962;DHT22;22044;48.298;10.008;2023-05-23T03:08:42;15.30;99.90
35962;DHT22;22044;48.298;10.008;2023-05-23T03:11:28;15.20;99.90
35962;DHT22;22044;48.298;10.008;2023-05-23T03:14:14;15.10;99.90
35962;DHT22;22044;48.298;10.008;2023-05-23T03:16:59;15.10;99.90
35962;DHT22;22044;48.298;10.008;2023-05-23T03:19:47;15.10;99.90
35962;DHT22;22044;48.298;10.008;2023-05-23T03:22:33;15.10;99.90
35962;DHT22;22044;48.298;10.008;2023-05-23T03:25:21;15.10;99.90
35962;DHT22;22044;48.298;10.008;2023-05-23T03:28:07;15.10;99.90
35962;DHT22;22044;48.298;10.008;2023-05-23T03:30:53;15.10;99.90
35962;DHT22;22044;48.298;10.008;2023-05-23T03:33:38;14.90;99.90
35962;DHT22;22044;48.298;10.008;2023-05-23T03:36:24;14.30;99.90
35962;DHT22;22044;48.298;10.008;2023-05-23T03:39:12;14.00;99.90
35962;DHT22;22044;48.298;10.008;2023-05-23T03:41:59;14.20;99.90
35962;DHT22;22044;48.298;10.008;2023-05-23T03:44:44;14.30;99.90
35962;DHT22;22044;48.298;10.008;2023-05-23T03:47:30;14.30;99.90
35962;DHT22;22044;48.298;10.008;2023-05-23T03:50:17;14.40;99.90
35962;DHT22;22044;48.298;10.008;2023-05-23T03:53:03;14.40;99.90
35962;DHT22;22044;48.298;10.008;2023-05-23T03:55:49;14.40;99.90
35962;DHT22;22044;48.298;10.008;2023-05-23T03:58:42;14.50;99.90
35962;DHT22;22044;48.298;10.008;2023-05-23T04:01:31;14.60;99.90
35962;DHT22;22044;48.298;10.008;2023-05-23T04:04:16;14.40;99.90
35962;DHT22;22044;48.298;10.008;2023-05-23T04:07:04;14.20;99.90
35962;DHT22;22044;48.298;10.008;2023-05-23T04:09:50;14.30;99.90
35962;DHT22;22044;48.298;10.008;2023-05-23T04:12:36;14.30;99.90
35962;DHT22;22044;48.298;10.008;2023-05-23T04:15:27;14.40;99.90
35962;DHT22;22044;48.298;10.008;2023-05-23T04:18:17;14.50;99.90
35962;DHT22;22044;48.298;10.008;2023-05-23T04:21:03;14.50;99.90
35962;DHT22;22044;48.298;10.008;2023-05-23T04:23:51;14.60;99.90
35962;DHT22;22044;48.298;10.008;2023-05-23T04:26:36;14.70;99.90
35962;DHT22;22044;48.298;10.008;2023-05-23T04:29:23;14.70;99.90
35962;DHT22;22044;48.298;10.008;2023-05-23T04:32:11;14.70;99.90
35962;DHT22;22044;48.298;10.008;2023-05-23T04:34:58;14.80;99.90
35962;DHT22;22044;48.298;10.008;2023-05-23T04:37:46;14.80;99.90
35962;DHT22;22044;48.298;10.008;2023-05-23T04:40:32;14.90;99.90
35962;DHT22;22044;48.298;10.008;2023-05-23T04:43:38;14.90;99.90
35962;DHT22;22044;48.298;10.008;2023-05-23T04:46:36;14.90;99.90
35962;DHT22;22044;48.298;10.008;2023-05-23T04:49:36;15.00;99.90
35962;DHT22;22044;48.298;10.008;2023-05-23T04:52:24;15.10;99.90
35962;DHT22;22044;48.298;10.008;2023-05-23T04:55:11;15.10;99.90
35962;DHT22;22044;48.298;10.008;2023-05-23T04:57:56;15.10;99.90
35962;DHT22;22044;48.298;10.008;2023-05-23T05:00:42;15.10;99.90
35962;DHT22;22044;48.298;10.008;2023-05-23T05:03:29;15.20;99.90
35962;DHT22;22044;48.298;10.008;2023-05-23T05:06:17;15.20;99.90
35962;DHT22;22044;48.298;10.008;2023-05-23T05:09:04;15.20;99.90
35962;DHT22;22044;48.298;10.008;2023-05-23T05:11:50;15.20;99.90
35962;DHT22;22044;48.298;10.008;2023-05-23T05:14:37;15.20;99.90
35962;DHT22;22044;48.298;10.008;2023-05-23T05:17:22;15.30;99.90
35962;DHT22;22044;48.298;10.008;2023-05-23T05:20:21;15.30;99.90
35962;DHT22;22044;48.298;10.008;2023-05-23T05:23:09;15.40;99.90
35962;DHT22;22044;48.298;10.008;2023-05-23T05:25:55;15.30;99.90
35962;DHT22;22044;48.298;10.008;2023-05-23T05:28:41;15.30;99.90
35962;DHT22;22044;48.298;10.008;2023-05-23T05:31:27;15.20;99.90
35962;DHT22;22044;48.298;10.008;2023-05-23T05:34:13;15.00;99.90
35962;DHT22;22044;48.298;10.008;2023-05-23T05:37:03;14.90;99.90
35962;DHT22;22044;48.298;10.008;2023-05-23T05:39:51;14.90;99.90
35962;DHT22;22044;48.298;10.008;2023-05-23T05:42:38;14.90;99.90
35962;DHT22;22044;48.298;10.008;2023-05-23T05:45:24;14.90;99.90
35962;DHT22;22044;48.298;10.008;2023-05-23T05:48:09;15.00;99.90
35962;DHT22;22044;48.298;10.008;2023-05-23T05:50:56;15.10;99.90
35962;DHT22;22044;48.298;10.008;2023-05-23T05:53:44;15.10;99.90
35962;DHT22;22044;48.298;10.008;2023-05-23T05:56:31;15.30;99.90
35962;DHT22;22044;48.298;10.008;2023-05-23T05:59:17;15.40;99.90
35962;DHT22;22044;48.298;10.008;2023-05-23T06:02:03;15.40;99.90
35962;DHT22;22044;48.298;10.008;2023-05-23T06:04:49;15.40;99.90
35962;DHT22;22044;48.298;10.008;2023-05-23T06:07:34;15.50;99.90
35962;DHT22;22044;48.298;10.008;2023-05-23T06:10:20;15.60;99.90
35962;DHT22;22044;48.298;10.008;2023-05-23T06:13:09;15.70;99.90
35962;DHT22;22044;48.298;10.008;2023-05-23T06:15:57;15.80;99.90
35962;DHT22;22044;48.298;10.008;2023-05-23T06:18:43;15.90;99.90
35962;DHT22;22044;48.298;10.008;2023-05-23T06:21:28;15.90;99.90
35962;DHT22;22044;48.298;10.008;2023-05-23T06:24:14;16.00;99.90
35962;DHT22;22044;48.298;10.008;2023-05-23T06:27:00;16.00;99.90
35962;DHT22;22044;48.298;10.008;2023-05-23T06:29:47;16.00;99.90
35962;DHT22;22044;48.298;10.008;2023-05-23T06:32:32;16.10;99.90
35962;DHT22;22044;48.298;10.008;2023-05-23T06:35:18;16.20;99.90
35962;DHT22;22044;48.298;10.008;2023-05-23T06:38:03;16.20;99.90
35962;DHT22;22044;48.298;10.008;2023-05-23T06:40:49;16.20;99.90
35962;DHT22;22044;48.298;10.008;2023-05-23T06:43:36;16.20;99.90
35962;DHT22;22044;48.298;10.008;2023-05-23T06:46:44;16.20;99.90
35962;DHT22;22044;48.298;10.008;2023-05-23T06:49:31;16.20;99.90
35962;DHT22;22044;48.298;10.008;2023-05-23T06:52:16;16.20;99.90
35962;DHT22;22044;48.298;10.008;2023-05-23T06:55:02;16.20;99.90
35962;DHT22;22044;48.298;10.008;2023-05-23T06:57:48;16.30;99.90
35962;DHT22;22044;48.298;10.008;2023-05-23T07:00:36;16.30;99.90
35962;DHT22;22044;48.298;10.008;2023-05-23T07:03:35;16.30;99.90
35962;DHT22;22044;48.298;10.008;2023-05-23T07:06:24;16.40;99.90
35962;DHT22;22044;48.298;10.008;2023-05-23T07:09:11;16.50;99.90
35962;DHT22;22044;48.298;10.008;2023-05-23T07:11:57;16.70;99.90
35962;DHT22;22044;48.298;10.008;2023-05-23T07:14:45;16.80;99.90
35962;DHT22;22044;48.298;10.008;2023-05-23T07:17:54;16.90;99.90
35962;DHT22;22044;48.298;10.008;2023-05-23T07:20:45;17.00;99.90
35962;DHT22;22044;48.298;10.008;2023-05-23T07:23:35;17.20;99.90
35962;DHT22;22044;48.298;10.008;2023-05-23T07:26:20;17.30;99.90
35962;DHT22;22044;48.298;10.008;2023-05-23T07:29:13;17.40;99.90
35962;DHT22;22044;48.298;10.008;2023-05-23T07:32:04;17.60;99.90
35962;DHT22;22044;48.298;10.008;2023-05-23T07:34:49;17.70;99.90
35962;DHT22;22044;48.298;10.008;2023-05-23T07:37:37;17.80;99.90
35962;DHT22;22044;48.298;10.008;2023-05-23T07:40:22;17.90;99.90
35962;DHT22;22044;48.298;10.008;2023-05-23T07:43:10;17.90;99.90
35962;DHT22;22044;48.298;10.008;2023-05-23T07:45:55;18.00;99.90
35962;DHT22;22044;48.298;10.008;2023-05-23T07:48:41;18.10;99.90
35962;DHT22;22044;48.298;10.008;2023-05-23T07:51:29;18.10;99.90
35962;DHT22;22044;48.298;10.008;2023-05-23T07:54:18;18.20;99.90
35962;DHT22;22044;48.298;10.008;2023-05-23T07:57:07;18.10;99.90
35962;DHT22;22044;48.298;10.008;2023-05-23T07:59:53;18.20;99.90
35962;DHT22;22044;48.298;10.008;2023-05-23T08:02:39;18.20;99.90
35962;DHT22;22044;48.298;10.008;2023-05-23T08:05:24;18.20;99.90
35962;DHT22;22044;48.298;10.008;2023-05-23T08:08:13;18.30;99.90
35962;DHT22;22044;48.298;10.008;2023-05-23T08:11:00;18.30;99.90
35962;DHT22;22044;48.298;10.008;2023-05-23T08:13:54;18.30;99.90
35962;DHT22;22044;48.298;10.008;2023-05-23T08:17:11;18.30;99.90
35962;DHT22;22044;48.298;10.008;2023-05-23T08:19:57;18.30;99.90
35962;DHT22;22044;48.298;10.008;2023-05-23T08:22:43;18.50;99.90
35962;DHT22;22044;48.298;10.008;2023-05-23T08:25:30;18.50;99.90
35962;DHT22;22044;48.298;10.008;2023-05-23T08:28:17;18.40;99.90
35962;DHT22;22044;48.298;10.008;2023-05-23T08:31:11;18.30;99.90
35962;DHT22;22044;48.298;10.008;2023-05-23T08:33:58;18.20;99.90
35962;DHT22;22044;48.298;10.008;2023-05-23T08:36:44;18.10;99.90
35962;DHT22;22044;48.298;10.008;2023-05-23T08:39:34;18.00;99.90
35962;DHT22;22044;48.298;10.008;2023-05-23T08:42:39;18.10;99.90
35962;DHT22;22044;48.298;10.008;2023-05-23T08:45:28;18.00;99.90
35962;DHT22;22044;48.298;10.008;2023-05-23T08:48:17;17.90;99.90
35962;DHT22;22044;48.298;10.008;2023-05-23T08:51:08;18.00;99.90
35962;DHT22;22044;48.298;10.008;2023-05-23T08:53:57;17.80;99.90
35962;DHT22;22044;48.298;10.008;2023-05-23T08:56:45;17.60;99.90
35962;DHT22;22044;48.298;10.008;2023-05-23T08:59:32;17.50;99.90
35962;DHT22;22044;48.298;10.008;2023-05-23T09:02:21;17.40;99.90
35962;DHT22;22044;48.298;10.008;2023-05-23T09:05:10;17.50;99.90
35962;DHT22;22044;48.298;10.008;2023-05-23T09:07:56;17.50;99.90
35962;DHT22;22044;48.298;10.008;2023-05-23T09:10:44;17.50;99.90
35962;DHT22;22044;48.298;10.008;2023-05-23T09:13:31;17.60;99.90
35962;DHT22;22044;48.298;10.008;2023-05-23T09:16:20;17.70;99.90
35962;DHT22;22044;48.298;10.008;2023-05-23T09:19:13;17.80;99.90
35962;DHT22;22044;48.298;10.008;2023-05-23T09:22:04;17.80;99.90
35962;DHT22;22044;48.298;10.008;2023-05-23T09:24:56;17.90;99.90
35962;DHT22;22044;48.298;10.008;2023-05-23T09:27:42;17.90;99.90
35962;DHT22;22044;48.298;10.008;2023-05-23T09:30:28;18.00;99.90
35962;DHT22;22044;48.298;10.008;2023-05-23T09:33:18;18.10;99.90
35962;DHT22;22044;48.298;10.008;2023-05-23T09:36:06;18.10;99.90
35962;DHT22;22044;48.298;10.008;2023-05-23T09:38:52;18.10;99.90
35962;DHT22;22044;48.298;10.008;2023-05-23T09:41:37;18.00;99.90
35962;DHT22;22044;48.298;10.008;2023-05-23T09:44:23;18.10;99.90
35962;DHT22;22044;48.298;10.008;2023-05-23T09:47:09;18.30;99.90
35962;DHT22;22044;48.298;10.008;2023-05-23T09:49:55;18.40;99.90
35962;DHT22;22044;48.298;10.008;2023-05-23T09:52:42;18.60;99.90
35962;DHT22;22044;48.298;10.008;2023-05-23T09:55:27;18.90;99.90
35962;DHT22;22044;48.298;10.008;2023-05-23T09:58:13;19.10;99.90
35962;DHT22;22044;48.298;10.008;2023-05-23T10:00:59;19.20;99.90
35962;DHT22;22044;48.298;10.008;2023-05-23T10:03:49;19.20;99.90
35962;DHT22;22044;48.298;10.008;2023-05-23T10:06:40;19.20;99.90
35962;DHT22;22044;48.298;10.008;2023-05-23T10:09:32;19.30;99.90
35962;DHT22;22044;48.298;10.008;2023-05-23T10:12:46;19.30;99.90
35962;DHT22;22044;48.298;10.008;2023-05-23T10:15:38;19.30;99.90
35962;DHT22;22044;48.298;10.008;2023-05-23T10:18:28;19.40;99.90
35962;DHT22;22044;48.298;10.008;2023-05-23T10:21:18;19.30;99.90
35962;DHT22;22044;48.298;10.008;2023-05-23T10:24:06;19.30;99.90
35962;DHT22;22044;48.298;10.008;2023-05-23T10:26:54;19.40;99.90
35962;DHT22;22044;48.298;10.008;2023-05-23T10:29:39;19.70;99.90
35962;DHT22;22044;48.298;10.008;2023-05-23T10:32:26;19.80;99.90
35962;DHT22;22044;48.298;10.008;2023-05-23T10:35:18;19.90;99.90
35962;DHT22;22044;48.298;10.008;2023-05-23T10:38:11;20.00;99.90
35962;DHT22;22044;48.298;10.008;2023-05-23T10:41:05;20.00;99.90
35962;DHT22;22044;48.298;10.008;2023-05-23T10:44:03;19.80;99.90
35962;DHT22;22044;48.298;10.008;2023-05-23T10:46:51;19.60;99.90
35962;DHT22;22044;48.298;10.008;2023-05-23T10:49:39;19.60;99.90
35962;DHT22;22044;48.298;10.008;2023-05-23T10:52:25;19.70;99.90
35962;DHT22;22044;48.298;10.008;2023-05-23T10:55:15;20.10;99.90
35962;DHT22;22044;48.298;10.008;2023-05-23T10:58:14;20.20;99.90
35962;DHT22;22044;48.298;10.008;2023-05-23T11:01:06;20.10;99.90
35962;DHT22;22044;48.298;10.008;2023-05-23T11:03:52;20.00;99.90
35962;DHT22;22044;48.298;10.008;2023-05-23T11:06:39;20.00;99.90
35962;DHT22;22044;48.298;10.008;2023-05-23T11:09:26;20.20;99.90
35962;DHT22;22044;48.298;10.008;2023-05-23T11:12:11;20.20;99.90
35962;DHT22;22044;48.298;10.008;2023-05-23T11:14:57;20.20;99.90
35962;DHT22;22044;48.298;10.008;2023-05-23T11:17:51;20.30;99.90
35962;DHT22;22044;48.298;10.008;2023-05-23T11:20:38;20.20;99.90
35962;DHT22;22044;48.298;10.008;2023-05-23T11:23:38;20.40;99.90
35962;DHT22;22044;48.298;10.008;2023-05-23T11:26:34;20.50;99.90
35962;DHT22;22044;48.298;10.008;2023-05-23T11:29:20;20.50;99.90
35962;DHT22;22044;48.298;10.008;2023-05-23T11:32:10;20.40;99.90
35962;DHT22;22044;48.298;10.008;2023-05-23T11:35:00;20.40;99.90
35962;DHT22;22044;48.298;10.008;2023-05-23T11:37:45;20.30;99.90
35962;DHT22;22044;48.298;10.008;2023-05-23T11:40:32;20.50;99.90
35962;DHT22;22044;48.298;10.008;2023-05-23T11:43:19;20.20;99.90
35962;DHT22;22044;48.298;10.008;2023-05-23T11:46:07;20.50;99.90
35962;DHT22;22044;48.298;10.008;2023-05-23T11:48:53;20.60;99.90
35962;DHT22;22044;48.298;10.008;2023-05-23T11:51:40;20.70;99.90
35962;DHT22;22044;48.298;10.008;2023-05-23T11:54:25;20.60;99.90
35962;DHT22;22044;48.298;10.008;2023-05-23T11:57:12;20.40;99.90
35962;DHT22;22044;48.298;10.008;2023-05-23T11:59:58;20.50;99.90
35962;DHT22;22044;48.298;10.008;2023-05-23T12:02:44;20.60;99.90
35962;DHT22;22044;48.298;10.008;2023-05-23T12:05:31;20.60;99.90
35962;DHT22;22044;48.298;10.008;2023-05-23T12:08:19;20.90;99.90
35962;DHT22;22044;48.298;10.008;2023-05-23T12:11:05;20.80;99.90
35962;DHT22;22044;48.298;10.008;2023-05-23T12:13:51;21.20;99.90
35962;DHT22;22044;48.298;10.008;2023-05-23T12:16:37;21.30;99.90
35962;DHT22;22044;48.298;10.008;2023-05-23T12:19:22;21.20;99.90
35962;DHT22;22044;48.298;10.008;2023-05-23T12:22:10;21.10;99.90
35962;DHT22;22044;48.298;10.008;2023-05-23T12:24:57;21.30;99.90
35962;DHT22;22044;48.298;10.008;2023-05-23T12:27:43;21.30;99.90
35962;DHT22;22044;48.298;10.008;2023-05-23T12:30:28;21.20;99.90
35962;DHT22;22044;48.298;10.008;2023-05-23T12:33:25;21.20;99.90
35962;DHT22;22044;48.298;10.008;2023-05-23T12:36:11;21.20;99.90
35962;DHT22;22044;48.298;10.008;2023-05-23T12:39:01;21.10;99.90
35962;DHT22;22044;48.298;10.008;2023-05-23T12:41:48;20.90;99.90
35962;DHT22;22044;48.298;10.008;2023-05-23T12:44:33;20.80;99.90
35962;DHT22;22044;48.298;10.008;2023-05-23T12:47:19;20.70;99.90
35962;DHT22;22044;48.298;10.008;2023-05-23T12:50:05;20.60;99.90
35962;DHT22;22044;48.298;10.008;2023-05-23T12:52:51;20.80;99.90
35962;DHT22;22044;48.298;10.008;2023-05-23T12:55:36;21.00;99.90
35962;DHT22;22044;48.298;10.008;2023-05-23T12:58:23;21.10;99.90
35962;DHT22;22044;48.298;10.008;2023-05-23T13:01:10;21.20;99.90
35962;DHT22;22044;48.298;10.008;2023-05-23T13:03:55;21.40;99.90
35962;DHT22;22044;48.298;10.008;2023-05-23T13:06:41;21.40;99.90
35962;DHT22;22044;48.298;10.008;2023-05-23T13:09:27;21.40;99.90
35962;DHT22;22044;48.298;10.008;2023-05-23T13:12:13;21.30;99.90
35962;DHT22;22044;48.298;10.008;2023-05-23T13:15:00;21.50;99.90
35962;DHT22;22044;48.298;10.008;2023-05-23T13:17:46;21.30;99.90
35962;DHT22;22044;48.298;10.008;2023-05-23T13:20:32;21.10;99.90
35962;DHT22;22044;48.298;10.008;2023-05-23T13:23:18;21.00;99.90
35962;DHT22;22044;48.298;10.008;2023-05-23T13:26:03;20.80;99.90
35962;DHT22;22044;48.298;10.008;2023-05-23T13:28:49;20.70;99.90
35962;DHT22;22044;48.298;10.008;2023-05-23T13:31:36;20.80;99.90
35962;DHT22;22044;48.298;10.008;2023-05-23T13:34:21;20.90;99.90
35962;DHT22;22044;48.298;10.008;2023-05-23T13:37:07;21.00;99.90
35962;DHT22;22044;48.298;10.008;2023-05-23T13:39:53;21.20;99.90
35962;DHT22;22044;48.298;10.008;2023-05-23T13:42:39;21.30;99.90
35962;DHT22;22044;48.298;10.008;2023-05-23T13:45:24;21.20;99.90
35962;DHT22;22044;48.298;10.008;2023-05-23T13:48:11;21.30;99.90
35962;DHT22;22044;48.298;10.008;2023-05-23T13:50:57;21.20;99.90
35962;DHT22;22044;48.298;10.008;2023-05-23T13:53:42;21.10;99.90
35962;DHT22;22044;48.298;10.008;2023-05-23T13:56:28;21.10;99.90
35962;DHT22;22044;48.298;10.008;2023-05-23T13:59:14;20.90;99.90
35962;DHT22;22044;48.298;10.008;2023-05-23T14:02:06;20.70;99.90
35962;DHT22;22044;48.298;10.008;2023-05-23T14:04:53;20.70;99.90
35962;DHT22;22044;48.298;10.008;2023-05-23T14:07:38;20.80;99.90
35962;DHT22;22044;48.298;10.008;2023-05-23T14:10:24;21.00;99.90
35962;DHT22;22044;48.298;10.008;2023-05-23T14:13:10;20.80;99.90
35962;DHT22;22044;48.298;10.008;2023-05-23T14:15:56;20.50;99.90
35962;DHT22;22044;48.298;10.008;2023-05-23T14:18:41;20.50;99.90
35962;DHT22;22044;48.298;10.008;2023-05-23T14:21:29;20.40;99.90
35962;DHT22;22044;48.298;10.008;2023-05-23T14:24:15;20.10;99.90
35962;DHT22;22044;48.298;10.008;2023-05-23T14:27:01;20.10;99.90
35962;DHT22;22044;48.298;10.008;2023-05-23T14:29:47;20.30;99.90
35962;DHT22;22044;48.298;10.008;2023-05-23T14:32:33;20.10;99.90
35962;DHT22;22044;48.298;10.008;2023-05-23T14:35:22;19.80;99.90
35962;DHT22;22044;48.298;10.008;2023-05-23T14:38:10;19.60;99.90
35962;DHT22;22044;48.298;10.008;2023-05-23T14:40:55;19.60;99.90
35962;DHT22;22044;48.298;10.008;2023-05-23T14:43:42;19.80;99.90
35962;DHT22;22044;48.298;10.008;2023-05-23T14:46:27;19.80;99.90
35962;DHT22;22044;48.298;10.008;2023-05-23T14:49:13;20.00;99.90
35962;DHT22;22044;48.298;10.008;2023-05-23T14:51:59;19.90;99.90
35962;DHT22;22044;48.298;10.008;2023-05-23T14:54:46;19.80;99.90
35962;DHT22;22044;48.298;10.008;2023-05-23T14:57:32;19.90;99.90
35962;DHT22;22044;48.298;10.008;2023-05-23T15:00:18;20.10;99.90
35962;DHT22;22044;48.298;10.008;2023-05-23T15:03:03;20.30;99.90
35962;DHT22;22044;48.298;10.008;2023-05-23T15:05:49;20.60;99.90
35962;DHT22;22044;48.298;10.008;2023-05-23T15:08:35;20.80;99.90
35962;DHT22;22044;48.298;10.008;2023-05-23T15:11:22;21.00;99.90
35962;DHT22;22044;48.298;10.008;2023-05-23T15:14:08;21.20;99.90
35962;DHT22;22044;48.298;10.008;2023-05-23T15:16:53;21.20;99.90
35962;DHT22;22044;48.298;10.008;2023-05-23T15:19:39;21.10;99.90
35962;DHT22;22044;48.298;10.008;2023-05-23T15:22:26;21.20;99.90
35962;DHT22;22044;48.298;10.008;2023-05-23T15:25:11;21.40;99.90
35962;DHT22;22044;48.298;10.008;2023-05-23T15:27:58;21.40;99.90
35962;DHT22;22044;48.298;10.008;2023-05-23T15:30:43;21.50;99.90
35962;DHT22;22044;48.298;10.008;2023-05-23T15:33:29;21.40;99.90
35962;DHT22;22044;48.298;10.008;2023-05-23T15:36:15;21.40;99.90
35962;DHT22;22044;48.298;10.008;2023-05-23T15:39:00;21.20;99.90
35962;DHT22;22044;48.298;10.008;2023-05-23T15:41:47;21.20;99.90
35962;DHT22;22044;48.298;10.008;2023-05-23T15:44:34;21.00;99.90
35962;DHT22;22044;48.298;10.008;2023-05-23T15:47:19;20.80;99.90
35962;DHT22;22044;48.298;10.008;2023-05-23T15:50:06;20.60;99.90
35962;DHT22;22044;48.298;10.008;2023-05-23T15:52:51;20.30;99.90
35962;DHT22;22044;48.298;10.008;2023-05-23T15:55:37;20.00;99.90
35962;DHT22;22044;48.298;10.008;2023-05-23T15:58:23;20.00;99.90
35962;DHT22;22044;48.298;10.008;2023-05-23T16:01:10;20.00;99.90
35962;DHT22;22044;48.298;10.008;2023-05-23T16:03:55;19.90;99.90
35962;DHT22;22044;48.298;10.008;2023-05-23T16:06:41;20.00;99.90
35962;DHT22;22044;48.298;10.008;2023-05-23T16:09:26;20.10;99.90
35962;DHT22;22044;48.298;10.008;2023-05-23T16:12:12;20.20;99.90
35962;DHT22;22044;48.298;10.008;2023-05-23T16:14:58;20.40;99.90
35962;DHT22;22044;48.298;10.008;2023-05-23T16:17:45;20.40;99.90
35962;DHT22;22044;48.298;10.008;2023-05-23T16:20:30;20.50;99.90
35962;DHT22;22044;48.298;10.008;2023-05-23T16:23:17;20.50;99.90
35962;DHT22;22044;48.298;10.008;2023-05-23T16:26:03;20.50;99.90
35962;DHT22;22044;48.298;10.008;2023-05-23T16:28:49;20.40;99.90
35962;DHT22;22044;48.298;10.008;2023-05-23T16:31:35;20.10;99.90
35962;DHT22;22044;48.298;10.008;2023-05-23T16:34:22;19.70;99.90
35962;DHT22;22044;48.298;10.008;2023-05-23T16:37:07;19.60;99.90
35962;DHT22;22044;48.298;10.008;2023-05-23T16:39:53;19.50;99.90
35962;DHT22;22044;48.298;10.008;2023-05-23T16:42:38;19.30;99.90
35962;DHT22;22044;48.298;10.008;2023-05-23T16:45:24;19.10;99.90
35962;DHT22;22044;48.298;10.008;2023-05-23T16:48:09;18.80;99.90
35962;DHT22;22044;48.298;10.008;2023-05-23T16:50:57;18.70;99.90
35962;DHT22;22044;48.298;10.008;2023-05-23T16:53:42;18.70;99.90
35962;DHT22;22044;48.298;10.008;2023-05-23T16:56:28;18.60;99.90
35962;DHT22;22044;48.298;10.008;2023-05-23T16:59:14;18.60;99.90
35962;DHT22;22044;48.298;10.008;2023-05-23T17:01:59;18.60;99.90
35962;DHT22;22044;48.298;10.008;2023-05-23T17:04:45;18.60;99.90
35962;DHT22;22044;48.298;10.008;2023-05-23T17:07:32;18.60;99.90
35962;DHT22;22044;48.298;10.008;2023-05-23T17:10:17;18.50;99.90
35962;DHT22;22044;48.298;10.008;2023-05-23T17:13:03;18.50;99.90
35962;DHT22;22044;48.298;10.008;2023-05-23T17:15:49;18.30;99.90
35962;DHT22;22044;48.298;10.008;2023-05-23T17:18:34;18.30;99.90
35962;DHT22;22044;48.298;10.008;2023-05-23T17:21:20;18.30;99.90